createdAt,value
2017-03-18T00:00:47.783Z,0
2017-03-18T00:01:56.741Z,0
2017-03-18T00:03:05.729Z,0
2017-03-18T00:04:14.933Z,0
2017-03-18T00:05:23.888Z,0
2017-03-18T00:06:32.847Z,0
2017-03-18T00:07:41.800Z,0
2017-03-18T00:08:50.763Z,0
2017-03-18T00:10:00.053Z,0
2017-03-18T00:11:09.015Z,0
2017-03-18T00:12:17.968Z,0
2017-03-18T00:13:26.935Z,0
2017-03-18T00:14:35.901Z,0
2017-03-18T00:15:45.103Z,0
2017-03-18T00:16:54.055Z,0
2017-03-18T00:18:03.041Z,0
2017-03-18T00:19:12.007Z,0
2017-03-18T00:20:20.964Z,0
2017-03-18T00:21:30.166Z,0
2017-03-18T00:22:39.125Z,0
2017-03-18T00:23:48.096Z,0
2017-03-18T00:24:57.061Z,0
2017-03-18T00:26:06.020Z,0
2017-03-18T00:27:15.222Z,0
2017-03-18T00:28:24.186Z,0
2017-03-18T00:29:33.145Z,0
2017-03-18T00:30:42.424Z,0
2017-03-18T00:31:51.374Z,0
2017-03-18T00:33:00.634Z,0
2017-03-18T00:34:09.593Z,0
2017-03-18T00:35:18.556Z,0
2017-03-18T00:36:27.508Z,0
2017-03-18T00:37:36.468Z,0
2017-03-18T00:38:45.680Z,0
2017-03-18T00:39:54.634Z,0
2017-03-18T00:41:03.590Z,0
2017-03-18T00:42:12.551Z,0
2017-03-18T00:43:21.509Z,0
2017-03-18T00:44:30.720Z,0
2017-03-18T00:45:39.674Z,0
2017-03-18T00:46:48.624Z,0
2017-03-18T00:47:57.584Z,0
2017-03-18T00:49:06.541Z,0
2017-03-18T00:50:15.743Z,0
2017-03-18T00:51:24.699Z,0
2017-03-18T00:52:33.667Z,0
2017-03-18T00:53:42.715Z,0
2017-03-18T00:54:51.995Z,0
2017-03-18T00:56:01.199Z,0
2017-03-18T00:57:10.240Z,0
2017-03-18T00:58:19.207Z,0
2017-03-18T00:59:28.167Z,0
2017-03-18T01:00:37.213Z,0
2017-03-18T01:01:46.422Z,0
2017-03-18T01:02:55.378Z,0
2017-03-18T01:04:04.336Z,0
2017-03-18T01:05:13.618Z,0
2017-03-18T01:06:22.659Z,0
2017-03-18T01:07:31.910Z,0
2017-03-18T01:08:40.870Z,0
2017-03-18T01:09:49.935Z,0
2017-03-18T01:10:58.896Z,0
2017-03-18T01:12:07.855Z,0
2017-03-18T01:13:17.384Z,0
2017-03-18T01:14:26.347Z,0
2017-03-18T01:15:35.303Z,0
2017-03-18T01:16:44.275Z,0
2017-03-18T01:17:53.236Z,0
2017-03-18T01:19:02.495Z,0
2017-03-18T01:20:11.455Z,0
2017-03-18T01:21:20.408Z,0
2017-03-18T01:22:29.358Z,0
2017-03-18T01:23:38.320Z,0
2017-03-18T01:24:47.526Z,0
2017-03-18T01:25:56.515Z,0
2017-03-18T01:27:05.481Z,0
2017-03-18T01:28:14.441Z,0
2017-03-18T01:29:23.404Z,0
2017-03-18T01:30:32.613Z,0
2017-03-18T01:31:41.565Z,0
2017-03-18T01:32:50.526Z,0
2017-03-18T01:33:59.576Z,0
2017-03-18T01:35:08.853Z,0
2017-03-18T01:36:18.057Z,0
2017-03-18T01:37:27.018Z,0
2017-03-18T01:38:36.012Z,0
2017-03-18T01:39:45.062Z,0
2017-03-18T01:40:54.018Z,0
2017-03-18T01:42:03.315Z,0
2017-03-18T01:43:12.278Z,0
2017-03-18T01:44:21.240Z,0
2017-03-18T01:45:30.197Z,0
2017-03-18T01:46:39.183Z,0
2017-03-18T01:47:48.386Z,0
2017-03-18T01:48:57.434Z,0
2017-03-18T01:50:06.392Z,0
2017-03-18T01:51:15.351Z,0
2017-03-18T01:52:24.301Z,0
2017-03-18T01:53:33.515Z,0
2017-03-18T01:54:42.482Z,0
2017-03-18T01:55:51.525Z,0
2017-03-18T01:57:00.477Z,0
2017-03-18T01:58:09.437Z,0
2017-03-18T01:59:18.658Z,0
2017-03-18T02:00:27.699Z,0
2017-03-18T02:01:36.738Z,0
2017-03-18T02:02:45.699Z,0
2017-03-18T02:03:54.663Z,0
2017-03-18T02:05:03.926Z,0
2017-03-18T02:06:12.873Z,0
2017-03-18T02:07:21.828Z,0
2017-03-18T02:08:30.783Z,0
2017-03-18T02:09:39.781Z,0
2017-03-18T02:10:49.031Z,0
2017-03-18T02:11:58.068Z,0
2017-03-18T02:13:07.021Z,0
2017-03-18T02:14:15.980Z,0
2017-03-18T02:15:24.936Z,0
2017-03-18T02:16:34.273Z,0
2017-03-18T02:17:43.237Z,0
2017-03-18T02:18:52.193Z,0
2017-03-18T02:20:01.161Z,0
2017-03-18T02:21:10.204Z,0
2017-03-18T02:22:19.411Z,0
2017-03-18T02:23:28.376Z,0
2017-03-18T02:24:37.334Z,0
2017-03-18T02:25:46.289Z,0
2017-03-18T02:26:55.246Z,0
2017-03-18T02:28:04.456Z,0
2017-03-18T02:29:13.405Z,0
2017-03-18T02:30:22.356Z,0
2017-03-18T02:31:31.400Z,0
2017-03-18T02:32:40.451Z,0
2017-03-18T02:33:49.663Z,0
2017-03-18T02:34:58.706Z,0
2017-03-18T02:36:07.661Z,0
2017-03-18T02:37:16.612Z,0
2017-03-18T02:38:25.570Z,0
2017-03-18T02:39:35.100Z,0
2017-03-18T02:40:44.055Z,0
2017-03-18T02:41:53.007Z,0
2017-03-18T02:43:01.966Z,0
2017-03-18T02:44:10.922Z,0
2017-03-18T02:45:20.124Z,0
2017-03-18T02:46:29.075Z,0
2017-03-18T02:47:38.027Z,0
2017-03-18T02:48:46.984Z,0
2017-03-18T02:49:55.946Z,0
2017-03-18T02:51:05.174Z,0
2017-03-18T02:52:14.541Z,0
2017-03-18T02:53:23.547Z,0
2017-03-18T02:54:32.511Z,0
2017-03-18T02:55:41.467Z,0
2017-03-18T02:56:50.674Z,0
2017-03-18T02:57:59.632Z,0
2017-03-18T02:59:08.588Z,0
2017-03-18T03:00:17.540Z,0
2017-03-18T03:01:26.489Z,0
2017-03-18T03:02:35.691Z,0
2017-03-18T03:03:44.676Z,0
2017-03-18T03:04:53.636Z,0
2017-03-18T03:06:02.587Z,0
2017-03-18T03:07:11.573Z,0
2017-03-18T03:08:20.777Z,0
2017-03-18T03:09:29.741Z,0
2017-03-18T03:10:38.691Z,0
2017-03-18T03:11:47.648Z,0
2017-03-18T03:12:56.613Z,0
2017-03-18T03:14:05.818Z,0
2017-03-18T03:15:14.779Z,0
2017-03-18T03:16:23.727Z,0
2017-03-18T03:17:32.760Z,0
2017-03-18T03:18:41.713Z,0
2017-03-18T03:19:51.245Z,0
2017-03-18T03:21:00.204Z,0
2017-03-18T03:22:09.157Z,0
2017-03-18T03:23:18.119Z,0
2017-03-18T03:24:27.115Z,0
2017-03-18T03:25:36.323Z,0
2017-03-18T03:26:45.281Z,0
2017-03-18T03:27:54.241Z,0
2017-03-18T03:29:03.206Z,0
2017-03-18T03:30:12.514Z,0
2017-03-18T03:31:21.716Z,0
2017-03-18T03:32:30.668Z,0
2017-03-18T03:33:39.632Z,0
2017-03-18T03:34:48.601Z,0
2017-03-18T03:35:57.555Z,0
2017-03-18T03:37:06.833Z,0
2017-03-18T03:38:15.795Z,0
2017-03-18T03:39:24.761Z,0
2017-03-18T03:40:33.723Z,0
2017-03-18T03:41:42.674Z,0
2017-03-18T03:42:51.879Z,0
2017-03-18T03:44:00.837Z,0
2017-03-18T03:45:09.789Z,0
2017-03-18T03:46:18.836Z,0
2017-03-18T03:47:27.817Z,0
2017-03-18T03:48:37.022Z,0
2017-03-18T03:49:45.980Z,0
2017-03-18T03:50:54.940Z,0
2017-03-18T03:52:03.922Z,0
2017-03-18T03:53:12.873Z,0
2017-03-18T03:54:22.095Z,0
2017-03-18T03:55:31.364Z,0
2017-03-18T03:56:40.318Z,0
2017-03-18T03:57:49.280Z,0
2017-03-18T03:58:58.242Z,0
2017-03-18T04:00:07.502Z,0
2017-03-18T04:01:16.450Z,0
2017-03-18T04:02:25.495Z,0
2017-03-18T04:03:34.456Z,0
2017-03-18T04:04:43.414Z,0
2017-03-18T04:05:52.617Z,0
2017-03-18T04:07:01.574Z,0
2017-03-18T04:08:10.529Z,0
2017-03-18T04:09:19.807Z,0
2017-03-18T04:10:28.762Z,0
2017-03-18T04:11:38.041Z,0
2017-03-18T04:12:46.999Z,0
2017-03-18T04:13:55.958Z,0
2017-03-18T04:15:04.942Z,0
2017-03-18T04:16:13.895Z,0
2017-03-18T04:17:23.096Z,0
2017-03-18T04:18:32.054Z,0
2017-03-18T04:19:41.010Z,0
2017-03-18T04:20:49.956Z,0
2017-03-18T04:21:58.905Z,0
2017-03-18T04:23:08.105Z,0
2017-03-18T04:24:17.066Z,0
2017-03-18T04:25:26.106Z,0
2017-03-18T04:26:35.053Z,0
2017-03-18T04:27:44.003Z,0
2017-03-18T04:28:53.262Z,0
2017-03-18T04:30:02.214Z,0
2017-03-18T04:31:11.164Z,0
2017-03-18T04:32:20.120Z,0
2017-03-18T04:33:29.086Z,0
2017-03-18T04:34:38.294Z,0
2017-03-18T04:35:47.256Z,0
2017-03-18T04:36:56.207Z,0
2017-03-18T04:38:05.170Z,0
2017-03-18T04:39:14.126Z,0
2017-03-18T04:40:23.469Z,0
2017-03-18T04:41:32.416Z,0
2017-03-18T04:42:41.399Z,0
2017-03-18T04:43:50.361Z,0
2017-03-18T04:44:59.323Z,0
2017-03-18T04:46:08.579Z,0
2017-03-18T04:47:17.531Z,0
2017-03-18T04:48:26.571Z,0
2017-03-18T04:49:35.520Z,0
2017-03-18T04:50:44.476Z,0
2017-03-18T04:51:53.676Z,0
2017-03-18T04:53:02.624Z,0
2017-03-18T04:54:11.756Z,0
2017-03-18T04:55:20.711Z,0
2017-03-18T04:56:29.747Z,0
2017-03-18T04:57:38.954Z,0
2017-03-18T04:58:47.917Z,4
2017-03-18T04:59:56.881Z,4
2017-03-18T05:01:05.830Z,4
2017-03-18T05:02:14.779Z,4
2017-03-18T05:03:24.077Z,4
2017-03-18T05:04:33.026Z,4
2017-03-18T05:05:41.976Z,4
2017-03-18T05:06:50.929Z,4
2017-03-18T05:07:59.883Z,8
2017-03-18T05:09:09.079Z,8
2017-03-18T05:10:18.026Z,8
2017-03-18T05:11:27.022Z,8
2017-03-18T05:12:35.974Z,12
2017-03-18T05:13:44.932Z,16
2017-03-18T05:14:54.190Z,12
2017-03-18T05:16:03.142Z,16
2017-03-18T05:17:12.095Z,24
2017-03-18T05:18:21.055Z,20
2017-03-18T05:19:30.015Z,20
2017-03-18T05:20:39.259Z,16
2017-03-18T05:21:48.212Z,24
2017-03-18T05:22:57.169Z,28
2017-03-18T05:24:06.130Z,24
2017-03-18T05:25:15.086Z,28
2017-03-18T05:26:24.623Z,28
2017-03-18T05:27:33.575Z,32
2017-03-18T05:28:42.529Z,32
2017-03-18T05:29:51.483Z,40
2017-03-18T05:31:00.450Z,48
2017-03-18T05:32:09.702Z,52
2017-03-18T05:33:18.653Z,60
2017-03-18T05:34:27.607Z,56
2017-03-18T05:35:36.564Z,60
2017-03-18T05:36:45.510Z,56
2017-03-18T05:37:54.808Z,64
2017-03-18T05:39:03.766Z,84
2017-03-18T05:40:12.730Z,84
2017-03-18T05:41:21.686Z,80
2017-03-18T05:42:30.730Z,72
2017-03-18T05:43:39.944Z,80
2017-03-18T05:44:48.901Z,88
2017-03-18T05:45:57.859Z,80
2017-03-18T05:47:06.812Z,96
2017-03-18T05:48:15.762Z,80
2017-03-18T05:49:24.974Z,80
2017-03-18T05:50:33.926Z,64
2017-03-18T05:51:43.195Z,88
2017-03-18T05:52:52.155Z,116
2017-03-18T05:54:01.114Z,96
2017-03-18T05:55:10.364Z,100
2017-03-18T05:56:19.314Z,148
2017-03-18T05:57:28.266Z,104
2017-03-18T05:58:37.223Z,100
2017-03-18T05:59:46.181Z,84
2017-03-18T06:00:55.433Z,84
2017-03-18T06:02:04.388Z,88
2017-03-18T06:03:13.353Z,100
2017-03-18T06:04:22.313Z,108
2017-03-18T06:05:31.260Z,100
2017-03-18T06:06:40.462Z,100
2017-03-18T06:07:49.421Z,100
2017-03-18T06:08:58.508Z,104
2017-03-18T06:10:07.464Z,92
2017-03-18T06:11:16.419Z,124
2017-03-18T06:12:25.953Z,132
2017-03-18T06:13:34.942Z,140
2017-03-18T06:14:43.986Z,160
2017-03-18T06:15:52.942Z,104
2017-03-18T06:17:01.893Z,128
2017-03-18T06:18:11.146Z,108
2017-03-18T06:19:20.191Z,88
2017-03-18T06:20:29.146Z,104
2017-03-18T06:21:38.099Z,116
2017-03-18T06:22:47.051Z,168
2017-03-18T06:23:56.312Z,192
2017-03-18T06:25:05.266Z,220
2017-03-18T06:26:14.221Z,272
2017-03-18T06:27:23.269Z,320
2017-03-18T06:28:32.223Z,332
2017-03-18T06:29:41.478Z,344
2017-03-18T06:30:50.433Z,468
2017-03-18T06:31:59.494Z,396
2017-03-18T06:33:08.449Z,320
2017-03-18T06:34:17.414Z,240
2017-03-18T06:35:26.630Z,260
2017-03-18T06:36:35.583Z,236
2017-03-18T06:37:44.536Z,428
2017-03-18T06:38:53.529Z,572
2017-03-18T06:40:02.578Z,476
2017-03-18T06:41:11.826Z,412
2017-03-18T06:42:20.776Z,348
2017-03-18T06:43:29.733Z,272
2017-03-18T06:44:38.686Z,208
2017-03-18T06:45:47.634Z,252
2017-03-18T06:46:56.835Z,328
2017-03-18T06:48:05.796Z,352
2017-03-18T06:49:14.842Z,332
2017-03-18T06:50:23.791Z,380
2017-03-18T06:51:32.738Z,436
2017-03-18T06:52:41.947Z,432
2017-03-18T06:53:50.905Z,452
2017-03-18T06:54:59.870Z,496
2017-03-18T06:56:08.822Z,960
2017-03-18T06:57:17.776Z,892
2017-03-18T06:58:27.032Z,880
2017-03-18T06:59:35.981Z,728
2017-03-18T07:00:44.969Z,920
2017-03-18T07:01:53.921Z,636
2017-03-18T07:03:02.960Z,672
2017-03-18T07:04:12.211Z,564
2017-03-18T07:05:21.167Z,548
2017-03-18T07:06:30.113Z,388
2017-03-18T07:07:39.069Z,492
2017-03-18T07:08:48.022Z,412
2017-03-18T07:09:57.280Z,440
2017-03-18T07:11:06.231Z,420
2017-03-18T07:12:15.268Z,424
2017-03-18T07:13:24.226Z,464
2017-03-18T07:14:33.183Z,424
2017-03-18T07:15:42.436Z,444
2017-03-18T07:16:51.402Z,344
2017-03-18T07:18:00.388Z,420
2017-03-18T07:19:09.433Z,456
2017-03-18T07:20:18.709Z,404
2017-03-18T07:21:27.961Z,364
2017-03-18T07:22:36.911Z,488
2017-03-18T07:23:45.873Z,368
2017-03-18T07:24:54.916Z,348
2017-03-18T07:26:03.870Z,368
2017-03-18T07:27:13.119Z,388
2017-03-18T07:28:22.075Z,328
2017-03-18T07:29:31.030Z,352
2017-03-18T07:30:40.000Z,428
2017-03-18T07:31:48.950Z,360
2017-03-18T07:32:58.166Z,488
2017-03-18T07:34:07.120Z,640
2017-03-18T07:35:16.072Z,820
2017-03-18T07:36:25.034Z,668
2017-03-18T07:37:33.989Z,460
2017-03-18T07:38:43.191Z,584
2017-03-18T07:39:52.236Z,644
2017-03-18T07:41:01.185Z,704
2017-03-18T07:42:10.257Z,676
2017-03-18T07:43:19.218Z,740
2017-03-18T07:44:28.474Z,624
2017-03-18T07:45:37.432Z,616
2017-03-18T07:46:46.404Z,528
2017-03-18T07:47:55.366Z,568
2017-03-18T07:49:04.328Z,800
2017-03-18T07:50:13.584Z,644
2017-03-18T07:51:22.535Z,468
2017-03-18T07:52:31.583Z,516
2017-03-18T07:53:40.537Z,640
2017-03-18T07:54:49.495Z,1048
2017-03-18T07:55:58.752Z,1432
2017-03-18T07:57:07.747Z,1560
2017-03-18T07:58:16.708Z,2140
2017-03-18T07:59:25.670Z,1316
2017-03-18T08:00:34.657Z,744
2017-03-18T08:01:43.908Z,520
2017-03-18T08:02:52.946Z,484
2017-03-18T08:04:02.235Z,600
2017-03-18T08:05:11.191Z,724
2017-03-18T08:06:20.146Z,948
2017-03-18T08:07:29.425Z,1100
2017-03-18T08:08:38.430Z,1308
2017-03-18T08:09:47.382Z,1560
2017-03-18T08:10:56.331Z,1620
2017-03-18T08:12:05.283Z,2188
2017-03-18T08:13:14.494Z,2744
2017-03-18T08:14:23.466Z,2416
2017-03-18T08:15:32.424Z,2140
2017-03-18T08:16:41.385Z,1624
2017-03-18T08:17:50.345Z,1184
2017-03-18T08:18:59.603Z,684
2017-03-18T08:20:08.554Z,508
2017-03-18T08:21:17.556Z,512
2017-03-18T08:22:26.507Z,720
2017-03-18T08:23:35.463Z,1480
2017-03-18T08:24:44.669Z,3168
2017-03-18T08:25:53.626Z,2824
2017-03-18T08:27:02.585Z,2032
2017-03-18T08:28:11.538Z,1260
2017-03-18T08:29:20.500Z,1412
2017-03-18T08:30:29.702Z,1468
2017-03-18T08:31:38.662Z,1772
2017-03-18T08:32:47.617Z,2472
2017-03-18T08:33:56.584Z,4668
2017-03-18T08:35:05.544Z,3384
2017-03-18T08:36:14.795Z,2504
2017-03-18T08:37:23.744Z,1892
2017-03-18T08:38:32.785Z,2260
2017-03-18T08:39:42.063Z,1700
2017-03-18T08:40:51.014Z,1172
2017-03-18T08:42:00.596Z,908
2017-03-18T08:43:09.554Z,1072
2017-03-18T08:44:18.512Z,1124
2017-03-18T08:45:27.475Z,1280
2017-03-18T08:46:36.759Z,1708
2017-03-18T08:47:46.017Z,2144
2017-03-18T08:48:54.973Z,4136
2017-03-18T08:50:03.926Z,4064
2017-03-18T08:51:12.879Z,3184
2017-03-18T08:52:21.835Z,2264
2017-03-18T08:53:31.043Z,2164
2017-03-18T08:54:39.995Z,1660
2017-03-18T08:55:48.952Z,1560
2017-03-18T08:56:57.905Z,1856
2017-03-18T08:58:06.863Z,1832
2017-03-18T08:59:16.124Z,2000
2017-03-18T09:00:25.077Z,2012
2017-03-18T09:01:34.027Z,2536
2017-03-18T09:02:42.994Z,3544
2017-03-18T09:03:51.956Z,2248
2017-03-18T09:05:01.221Z,1992
2017-03-18T09:06:10.178Z,3584
2017-03-18T09:07:19.140Z,1624
2017-03-18T09:08:28.092Z,1292
2017-03-18T09:09:37.140Z,1560
2017-03-18T09:10:46.426Z,1680
2017-03-18T09:11:55.412Z,2060
2017-03-18T09:13:04.397Z,1508
2017-03-18T09:14:13.363Z,1456
2017-03-18T09:15:22.321Z,2464
2017-03-18T09:16:31.595Z,1580
2017-03-18T09:17:40.548Z,3700
2017-03-18T09:18:49.592Z,5292
2017-03-18T09:19:58.546Z,6488
2017-03-18T09:21:07.502Z,3844
2017-03-18T09:22:16.706Z,5012
2017-03-18T09:23:25.682Z,8232
2017-03-18T09:24:34.644Z,6032
2017-03-18T09:25:43.593Z,3696
2017-03-18T09:26:52.545Z,3060
2017-03-18T09:28:01.839Z,4316
2017-03-18T09:29:10.794Z,2152
2017-03-18T09:30:19.785Z,2884
2017-03-18T09:31:28.741Z,4876
2017-03-18T09:32:37.701Z,4968
2017-03-18T09:33:46.913Z,2752
2017-03-18T09:34:56.197Z,1768
2017-03-18T09:36:05.151Z,1720
2017-03-18T09:37:14.102Z,2388
2017-03-18T09:38:23.059Z,2244
2017-03-18T09:39:32.263Z,1576
2017-03-18T09:40:41.222Z,2164
2017-03-18T09:41:50.205Z,3480
2017-03-18T09:42:59.183Z,3304
2017-03-18T09:44:08.144Z,2716
2017-03-18T09:45:17.401Z,3384
2017-03-18T09:46:26.352Z,2696
2017-03-18T09:47:35.306Z,2152
2017-03-18T09:48:44.275Z,3380
2017-03-18T09:49:53.317Z,2768
2017-03-18T09:51:02.579Z,3536
2017-03-18T09:52:11.540Z,3072
2017-03-18T09:53:20.504Z,3076
2017-03-18T09:54:29.789Z,2536
2017-03-18T09:55:38.744Z,2208
2017-03-18T09:56:48.046Z,1684
2017-03-18T09:57:57.006Z,1444
2017-03-18T09:59:05.967Z,1560
2017-03-18T10:00:14.922Z,1576
2017-03-18T10:01:23.881Z,2856
2017-03-18T10:02:33.083Z,4008
2017-03-18T10:03:42.045Z,5572
2017-03-18T10:04:50.996Z,2932
2017-03-18T10:05:59.955Z,2584
2017-03-18T10:07:09.091Z,2300
2017-03-18T10:08:18.360Z,2016
2017-03-18T10:09:27.322Z,4540
2017-03-18T10:10:36.275Z,4280
2017-03-18T10:11:45.228Z,6160
2017-03-18T10:12:54.184Z,5188
2017-03-18T10:14:03.448Z,7500
2017-03-18T10:15:12.409Z,6532
2017-03-18T10:16:21.356Z,3792
2017-03-18T10:17:30.317Z,2548
2017-03-18T10:18:39.273Z,1892
2017-03-18T10:19:48.524Z,3816
2017-03-18T10:20:57.476Z,4680
2017-03-18T10:22:06.425Z,4472
2017-03-18T10:23:15.390Z,2872
2017-03-18T10:24:24.377Z,1448
2017-03-18T10:25:33.599Z,1748
2017-03-18T10:26:42.644Z,1456
2017-03-18T10:27:51.687Z,1156
2017-03-18T10:29:00.651Z,2044
2017-03-18T10:30:09.612Z,1264
2017-03-18T10:31:18.868Z,2000
2017-03-18T10:32:27.822Z,1892
2017-03-18T10:33:36.785Z,2456
2017-03-18T10:34:45.738Z,2180
2017-03-18T10:35:54.690Z,2072
2017-03-18T10:37:03.943Z,1468
2017-03-18T10:38:12.904Z,2164
2017-03-18T10:39:21.870Z,2768
2017-03-18T10:40:30.824Z,3068
2017-03-18T10:41:39.780Z,4844
2017-03-18T10:42:49.041Z,4260
2017-03-18T10:43:58.003Z,1984
2017-03-18T10:45:06.957Z,1480
2017-03-18T10:46:15.911Z,1280
2017-03-18T10:47:24.873Z,1584
2017-03-18T10:48:34.126Z,3984
2017-03-18T10:49:43.087Z,4368
2017-03-18T10:50:52.041Z,1444
2017-03-18T10:52:01.005Z,2904
2017-03-18T10:53:09.965Z,5680
2017-03-18T10:54:19.225Z,5776
2017-03-18T10:55:28.182Z,5172
2017-03-18T10:56:37.134Z,2316
2017-03-18T10:57:46.180Z,4092
2017-03-18T10:58:55.139Z,3216
2017-03-18T11:00:04.399Z,3144
2017-03-18T11:01:13.356Z,3740
2017-03-18T11:02:22.318Z,3152
2017-03-18T11:03:31.280Z,2856
2017-03-18T11:04:40.239Z,3400
2017-03-18T11:05:49.439Z,1752
2017-03-18T11:06:58.389Z,1180
2017-03-18T11:08:07.438Z,1592
2017-03-18T11:09:16.393Z,1940
2017-03-18T11:10:25.351Z,2512
2017-03-18T11:11:34.616Z,1224
2017-03-18T11:12:43.660Z,1908
2017-03-18T11:13:52.627Z,1776
2017-03-18T11:15:01.591Z,3884
2017-03-18T11:16:10.550Z,4212
2017-03-18T11:17:19.822Z,1544
2017-03-18T11:18:28.814Z,2472
2017-03-18T11:19:37.774Z,2568
2017-03-18T11:20:46.731Z,4992
2017-03-18T11:21:55.683Z,3308
2017-03-18T11:23:04.942Z,2028
2017-03-18T11:24:13.909Z,2004
2017-03-18T11:25:22.865Z,2132
2017-03-18T11:26:31.907Z,2448
2017-03-18T11:27:40.866Z,2700
2017-03-18T11:28:50.128Z,3368
2017-03-18T11:29:59.094Z,1740
2017-03-18T11:31:08.052Z,1152
2017-03-18T11:32:17.013Z,1424
2017-03-18T11:33:25.973Z,992
2017-03-18T11:34:35.179Z,1364
2017-03-18T11:35:44.231Z,980
2017-03-18T11:36:53.194Z,900
2017-03-18T11:38:02.158Z,1480
2017-03-18T11:39:11.118Z,896
2017-03-18T11:40:20.328Z,1572
2017-03-18T11:41:29.283Z,1564
2017-03-18T11:42:38.238Z,1572
2017-03-18T11:43:47.193Z,1564
2017-03-18T11:44:56.153Z,1560
2017-03-18T11:46:05.358Z,1552
2017-03-18T11:47:14.322Z,1560
2017-03-18T11:48:23.321Z,1556
2017-03-18T11:49:32.284Z,1560
2017-03-18T11:50:41.250Z,1076
2017-03-18T11:51:50.451Z,1564
2017-03-18T11:52:59.414Z,1564
2017-03-18T11:54:08.380Z,860
2017-03-18T11:55:17.346Z,1588
2017-03-18T11:56:26.295Z,1664
2017-03-18T11:57:35.567Z,1728
2017-03-18T11:58:44.523Z,1680
2017-03-18T11:59:53.485Z,1920
2017-03-18T12:01:02.444Z,2516
2017-03-18T12:02:11.395Z,3924
2017-03-18T12:03:20.654Z,4332
2017-03-18T12:04:29.649Z,4764
2017-03-18T12:05:38.690Z,3864
2017-03-18T12:06:47.655Z,4124
2017-03-18T12:07:56.612Z,2860
2017-03-18T12:09:05.821Z,2696
2017-03-18T12:10:14.775Z,4880
2017-03-18T12:11:23.732Z,4136
2017-03-18T12:12:32.682Z,4032
2017-03-18T12:13:41.641Z,3144
2017-03-18T12:14:50.898Z,4808
2017-03-18T12:15:59.858Z,3268
2017-03-18T12:17:08.811Z,3384
2017-03-18T12:18:17.786Z,3128
2017-03-18T12:19:26.765Z,4660
2017-03-18T12:20:36.340Z,4628
2017-03-18T12:21:45.293Z,4804
2017-03-18T12:22:54.254Z,4580
2017-03-18T12:24:03.219Z,3400
2017-03-18T12:25:12.496Z,3292
2017-03-18T12:26:21.838Z,3132
2017-03-18T12:27:31.121Z,3088
2017-03-18T12:28:40.162Z,4032
2017-03-18T12:29:49.466Z,2204
2017-03-18T12:30:58.424Z,1760
2017-03-18T12:32:07.769Z,3848
2017-03-18T12:33:16.732Z,5284
2017-03-18T12:34:25.701Z,4552
2017-03-18T12:35:34.655Z,4628
2017-03-18T12:36:43.612Z,4960
2017-03-18T12:37:52.870Z,5528
2017-03-18T12:39:01.826Z,4408
2017-03-18T12:40:10.782Z,3448
2017-03-18T12:41:19.752Z,4456
2017-03-18T12:42:28.790Z,3840
2017-03-18T12:43:38.057Z,2996
2017-03-18T12:44:47.019Z,1796
2017-03-18T12:45:55.975Z,2432
2017-03-18T12:47:04.933Z,2724
2017-03-18T12:48:13.900Z,3524
2017-03-18T12:49:23.167Z,3676
2017-03-18T12:50:32.214Z,2348
2017-03-18T12:51:41.168Z,3616
2017-03-18T12:52:50.211Z,4128
2017-03-18T12:53:59.173Z,3884
2017-03-18T12:55:08.758Z,2548
2017-03-18T12:56:17.712Z,2052
2017-03-18T12:57:26.754Z,3220
2017-03-18T12:58:35.714Z,4236
2017-03-18T12:59:44.751Z,3832
2017-03-18T13:00:54.004Z,3764
2017-03-18T13:02:03.280Z,2800
2017-03-18T13:03:12.243Z,1628
2017-03-18T13:04:21.204Z,1600
2017-03-18T13:05:30.158Z,1672
2017-03-18T13:06:39.410Z,1772
2017-03-18T13:07:48.373Z,2460
2017-03-18T13:08:57.336Z,1524
2017-03-18T13:10:06.295Z,4136
2017-03-18T13:11:15.252Z,3972
2017-03-18T13:12:24.509Z,3392
2017-03-18T13:13:33.468Z,3304
2017-03-18T13:14:42.431Z,3556
2017-03-18T13:15:51.382Z,3716
2017-03-18T13:17:00.336Z,3120
2017-03-18T13:18:09.723Z,3020
2017-03-18T13:19:18.686Z,3468
2017-03-18T13:20:27.644Z,3232
2017-03-18T13:21:36.594Z,3756
2017-03-18T13:22:45.635Z,3332
2017-03-18T13:23:54.899Z,3532
2017-03-18T13:25:03.862Z,3524
2017-03-18T13:26:12.835Z,4212
2017-03-18T13:27:21.797Z,4436
2017-03-18T13:28:30.748Z,4652
2017-03-18T13:29:40.038Z,3644
2017-03-18T13:30:48.993Z,3848
2017-03-18T13:31:57.957Z,3284
2017-03-18T13:33:06.918Z,4376
2017-03-18T13:34:15.901Z,4344
2017-03-18T13:35:25.113Z,3324
2017-03-18T13:36:34.065Z,3980
2017-03-18T13:37:43.028Z,4072
2017-03-18T13:38:51.985Z,1664
2017-03-18T13:40:00.949Z,1536
2017-03-18T13:41:10.163Z,1828
2017-03-18T13:42:19.117Z,1760
2017-03-18T13:43:28.081Z,1960
2017-03-18T13:44:37.043Z,1748
2017-03-18T13:45:46.007Z,3316
2017-03-18T13:46:55.256Z,1768
2017-03-18T13:48:04.303Z,2244
2017-03-18T13:49:13.585Z,1184
2017-03-18T13:50:22.550Z,2180
2017-03-18T13:51:31.509Z,1168
2017-03-18T13:52:40.768Z,908
2017-03-18T13:53:50.057Z,988
2017-03-18T13:54:59.017Z,940
2017-03-18T13:56:07.977Z,1376
2017-03-18T13:57:16.934Z,1164
2017-03-18T13:58:26.522Z,852
2017-03-18T13:59:35.481Z,864
2017-03-18T14:00:44.435Z,1740
2017-03-18T14:01:53.393Z,1736
2017-03-18T14:03:02.360Z,1492
2017-03-18T14:04:11.616Z,2048
2017-03-18T14:05:20.578Z,2312
2017-03-18T14:06:29.532Z,1612
2017-03-18T14:07:38.496Z,1860
2017-03-18T14:08:47.463Z,1816
2017-03-18T14:09:56.734Z,2948
2017-03-18T14:11:05.694Z,4404
2017-03-18T14:12:14.654Z,4824
2017-03-18T14:13:23.610Z,3748
2017-03-18T14:14:32.577Z,2668
2017-03-18T14:15:41.832Z,2928
2017-03-18T14:16:50.789Z,2152
2017-03-18T14:17:59.831Z,2668
2017-03-18T14:19:08.790Z,2096
2017-03-18T14:20:17.749Z,2232
2017-03-18T14:21:27.001Z,3140
2017-03-18T14:22:35.958Z,2756
2017-03-18T14:23:44.924Z,2552
2017-03-18T14:24:53.883Z,1668
2017-03-18T14:26:02.847Z,2020
2017-03-18T14:27:12.056Z,3308
2017-03-18T14:28:21.022Z,2400
2017-03-18T14:29:29.985Z,1236
2017-03-18T14:30:38.941Z,1156
2017-03-18T14:31:47.904Z,1072
2017-03-18T14:32:57.246Z,800
2017-03-18T14:34:06.614Z,1028
2017-03-18T14:35:15.574Z,792
2017-03-18T14:36:24.527Z,908
2017-03-18T14:37:33.494Z,824
2017-03-18T14:38:42.707Z,672
2017-03-18T14:39:51.671Z,908
2017-03-18T14:41:00.634Z,736
2017-03-18T14:42:09.592Z,944
2017-03-18T14:43:18.550Z,1340
2017-03-18T14:44:27.810Z,1368
2017-03-18T14:45:36.770Z,868
2017-03-18T14:46:45.808Z,876
2017-03-18T14:47:54.769Z,724
2017-03-18T14:49:03.734Z,680
2017-03-18T14:50:13.003Z,672
2017-03-18T14:51:21.961Z,692
2017-03-18T14:52:31.244Z,904
2017-03-18T14:53:40.202Z,1028
2017-03-18T14:54:49.246Z,664
2017-03-18T14:55:58.506Z,664
2017-03-18T14:57:07.463Z,700
2017-03-18T14:58:16.421Z,876
2017-03-18T14:59:25.388Z,1100
2017-03-18T15:00:34.346Z,1016
2017-03-18T15:01:43.548Z,924
2017-03-18T15:02:52.508Z,756
2017-03-18T15:04:01.488Z,660
2017-03-18T15:05:10.445Z,648
2017-03-18T15:06:19.404Z,624
2017-03-18T15:07:28.986Z,640
2017-03-18T15:08:38.028Z,992
2017-03-18T15:09:46.984Z,1100
2017-03-18T15:10:55.939Z,660
2017-03-18T15:12:04.932Z,428
2017-03-18T15:13:14.276Z,452
2017-03-18T15:14:23.239Z,648
2017-03-18T15:15:32.289Z,1076
2017-03-18T15:16:41.248Z,1312
2017-03-18T15:17:50.247Z,1268
2017-03-18T15:18:59.512Z,1120
2017-03-18T15:20:08.469Z,1100
2017-03-18T15:21:17.424Z,868
2017-03-18T15:22:26.382Z,756
2017-03-18T15:23:35.340Z,772
2017-03-18T15:24:44.601Z,920
2017-03-18T15:25:53.555Z,1436
2017-03-18T15:27:02.505Z,1012
2017-03-18T15:28:11.470Z,1376
2017-03-18T15:29:20.445Z,1544
2017-03-18T15:30:29.791Z,2208
2017-03-18T15:31:38.749Z,2008
2017-03-18T15:32:47.711Z,1320
2017-03-18T15:33:56.675Z,1064
2017-03-18T15:35:05.628Z,1388
2017-03-18T15:36:14.883Z,1156
2017-03-18T15:37:23.842Z,1464
2017-03-18T15:38:32.798Z,1328
2017-03-18T15:39:41.845Z,1424
2017-03-18T15:40:50.798Z,1380
2017-03-18T15:42:00.058Z,1308
2017-03-18T15:43:09.021Z,1184
2017-03-18T15:44:17.982Z,1108
2017-03-18T15:45:26.970Z,1180
2017-03-18T15:46:35.922Z,1252
2017-03-18T15:47:45.173Z,1452
2017-03-18T15:48:54.171Z,1148
2017-03-18T15:50:03.172Z,808
2017-03-18T15:51:12.135Z,1068
2017-03-18T15:52:21.087Z,1260
2017-03-18T15:53:30.350Z,976
2017-03-18T15:54:39.310Z,828
2017-03-18T15:55:48.260Z,936
2017-03-18T15:56:57.214Z,880
2017-03-18T15:58:06.175Z,988
2017-03-18T15:59:15.434Z,1240